createdAt,value
2022-08-27T00:00:45.692Z,25.07
2022-08-27T00:03:12.686Z,25.11
2022-08-27T00:05:40.004Z,25.11
2022-08-27T00:08:07.133Z,25.03
2022-08-27T00:10:34.049Z,25.09
2022-08-27T00:13:01.074Z,25.14
2022-08-27T00:15:27.812Z,25.06
2022-08-27T00:17:54.339Z,25.10
2022-08-27T00:20:22.310Z,25.15
2022-08-27T00:22:48.942Z,25.17
2022-08-27T00:25:16.066Z,25.16
2022-08-27T00:27:42.716Z,25.07
2022-08-27T00:30:11.212Z,25.05
2022-08-27T00:32:38.767Z,25.02
2022-08-27T00:35:05.573Z,24.98
2022-08-27T00:37:32.555Z,24.96
2022-08-27T00:39:59.383Z,24.86
2022-08-27T00:42:26.386Z,24.87
2022-08-27T00:44:56.292Z,24.85
2022-08-27T00:47:24.803Z,24.76
2022-08-27T00:49:54.517Z,24.64
2022-08-27T00:52:27.370Z,24.60
2022-08-27T00:54:57.052Z,24.63
2022-08-27T00:57:23.933Z,24.63
2022-08-27T00:59:51.007Z,24.61
2022-08-27T01:02:20.734Z,24.62
2022-08-27T01:04:50.791Z,24.62
2022-08-27T01:07:17.512Z,24.60
2022-08-27T01:09:46.029Z,24.65
2022-08-27T01:12:12.821Z,24.74
2022-08-27T01:14:39.717Z,24.72
2022-08-27T01:17:07.465Z,24.73
2022-08-27T01:19:35.829Z,24.64
2022-08-27T01:22:20.375Z,24.59
2022-08-27T01:24:50.300Z,24.57
2022-08-27T01:27:18.283Z,24.54
2022-08-27T01:29:45.641Z,24.55
2022-08-27T01:32:16.988Z,24.62
2022-08-27T01:34:44.108Z,24.71
2022-08-27T01:37:11.316Z,24.71
2022-08-27T01:39:40.722Z,24.78
2022-08-27T01:42:14.834Z,24.84
2022-08-27T01:44:46.923Z,24.87
2022-08-27T01:47:14.317Z,24.90
2022-08-27T01:49:41.065Z,24.89
2022-08-27T01:52:07.784Z,24.88
2022-08-27T01:54:34.730Z,24.91
2022-08-27T01:57:01.443Z,24.94
2022-08-27T01:59:39.521Z,24.95
2022-08-27T02:02:07.405Z,24.92
2022-08-27T02:04:34.142Z,24.90
2022-08-27T02:07:00.748Z,24.89
2022-08-27T02:09:27.317Z,24.85
2022-08-27T02:11:54.052Z,24.86
2022-08-27T02:14:20.689Z,24.79
2022-08-27T02:16:52.561Z,24.78
2022-08-27T02:19:20.361Z,24.76
2022-08-27T02:21:47.353Z,24.68
2022-08-27T02:24:13.934Z,24.63
2022-08-27T02:26:40.433Z,24.56
2022-08-27T02:29:07.463Z,24.50
2022-08-27T02:31:34.137Z,24.44
2022-08-27T02:34:01.130Z,24.34
2022-08-27T02:36:27.700Z,24.24
2022-08-27T02:38:54.482Z,24.16
2022-08-27T02:41:20.991Z,24.14
2022-08-27T02:43:47.824Z,24.15
2022-08-27T02:46:16.878Z,24.08
2022-08-27T02:48:44.423Z,24.05
2022-08-27T02:51:11.049Z,24.05
2022-08-27T02:53:38.010Z,23.99
2022-08-27T02:56:05.549Z,23.94
2022-08-27T02:58:33.739Z,23.88
2022-08-27T03:01:01.796Z,23.84
2022-08-27T03:03:31.777Z,23.87
2022-08-27T03:05:59.040Z,23.87
2022-08-27T03:08:26.682Z,23.79
2022-08-27T03:10:56.698Z,23.76
2022-08-27T03:13:23.599Z,23.77
2022-08-27T03:15:50.240Z,23.82
2022-08-27T03:18:21.936Z,23.82
2022-08-27T03:20:50.439Z,23.83
2022-08-27T03:23:18.761Z,23.81
2022-08-27T03:25:51.412Z,23.79
2022-08-27T03:28:22.766Z,23.78
2022-08-27T03:30:51.959Z,23.74
2022-08-27T03:33:20.313Z,23.70
2022-08-27T03:35:51.508Z,23.68
2022-08-27T03:38:18.826Z,23.74
2022-08-27T03:40:45.560Z,23.78
2022-08-27T03:43:12.983Z,23.80
2022-08-27T03:45:40.921Z,23.85
2022-08-27T03:48:26.930Z,23.93
2022-08-27T03:50:53.590Z,23.98
2022-08-27T03:53:23.109Z,24.04
2022-08-27T03:55:50.091Z,24.02
2022-08-27T03:58:16.909Z,24.06
2022-08-27T04:00:43.577Z,24.06
2022-08-27T04:03:11.966Z,24.06
2022-08-27T04:05:38.512Z,24.04
2022-08-27T04:08:05.377Z,24.03
2022-08-27T04:10:32.835Z,24.07
2022-08-27T04:13:02.013Z,24.08
2022-08-27T04:15:28.717Z,24.06
2022-08-27T04:17:55.296Z,24.02
2022-08-27T04:20:36.963Z,24.01
2022-08-27T04:23:04.136Z,24.03
2022-08-27T04:25:30.834Z,24.03
2022-08-27T04:27:57.994Z,24.10
2022-08-27T04:30:24.526Z,24.11
2022-08-27T04:32:51.045Z,24.10
2022-08-27T04:35:17.681Z,24.13
2022-08-27T04:37:44.342Z,24.18
2022-08-27T04:40:11.030Z,24.21
2022-08-27T04:42:37.961Z,24.22
2022-08-27T04:45:05.001Z,24.21
2022-08-27T04:47:31.691Z,24.20
2022-08-27T04:49:58.431Z,24.19
2022-08-27T04:52:25.216Z,24.11
2022-08-27T04:54:51.946Z,24.07
2022-08-27T04:57:18.885Z,24.14
2022-08-27T04:59:45.547Z,24.14
2022-08-27T05:02:12.669Z,24.14
2022-08-27T05:04:40.204Z,24.13
2022-08-27T05:07:07.827Z,24.14
2022-08-27T05:09:34.851Z,24.17
2022-08-27T05:12:01.699Z,24.20
2022-08-27T05:14:32.669Z,24.22
2022-08-27T05:16:59.232Z,24.16
2022-08-27T05:19:26.213Z,24.14
2022-08-27T05:21:53.800Z,24.14
2022-08-27T05:24:20.848Z,24.19
2022-08-27T05:26:47.425Z,24.20
2022-08-27T05:29:14.301Z,24.25
2022-08-27T05:31:40.925Z,24.29
2022-08-27T05:34:10.293Z,24.29
2022-08-27T05:36:37.369Z,24.26
2022-08-27T05:39:05.143Z,24.22
2022-08-27T05:41:33.977Z,24.19
2022-08-27T05:44:24.055Z,24.19
2022-08-27T05:46:52.390Z,24.15
2022-08-27T05:49:18.904Z,24.14
2022-08-27T05:51:45.395Z,24.11
2022-08-27T05:54:18.786Z,24.10
2022-08-27T05:56:45.904Z,24.13
2022-08-27T05:59:44.811Z,24.15
2022-08-27T06:02:11.639Z,24.15
2022-08-27T06:04:38.231Z,24.11
2022-08-27T06:07:06.501Z,24.09
2022-08-27T06:09:33.022Z,24.04
2022-08-27T06:12:01.534Z,24.03
2022-08-27T06:14:28.570Z,24.04
2022-08-27T06:16:55.573Z,24.07
2022-08-27T06:19:22.371Z,24.05
2022-08-27T06:22:00.800Z,24.06
2022-08-27T06:24:36.252Z,24.13
2022-08-27T06:27:03.039Z,24.14
2022-08-27T06:29:29.853Z,24.10
2022-08-27T06:31:56.367Z,24.08
2022-08-27T06:34:22.995Z,24.06
2022-08-27T06:36:49.504Z,24.06
2022-08-27T06:39:16.882Z,24.09
2022-08-27T06:41:44.028Z,24.09
2022-08-27T06:44:11.630Z,24.09
2022-08-27T06:46:38.667Z,24.09
2022-08-27T06:49:05.941Z,24.09
2022-08-27T06:51:34.474Z,24.14
2022-08-27T06:54:03.888Z,24.19
2022-08-27T06:56:31.021Z,24.23
2022-08-27T06:58:58.790Z,24.24
2022-08-27T07:01:27.988Z,24.25
2022-08-27T07:03:58.538Z,24.25
2022-08-27T07:06:25.970Z,24.27
2022-08-27T07:08:53.556Z,24.27
2022-08-27T07:11:20.778Z,24.29
2022-08-27T07:13:47.888Z,24.32
2022-08-27T07:16:19.286Z,24.33
2022-08-27T07:18:52.673Z,24.32
2022-08-27T07:21:22.760Z,24.27
2022-08-27T07:23:50.618Z,24.27
2022-08-27T07:26:18.049Z,24.35
2022-08-27T07:28:46.702Z,24.43
2022-08-27T07:31:17.551Z,24.43
2022-08-27T07:33:50.553Z,24.45
2022-08-27T07:36:19.902Z,24.49
2022-08-27T07:38:50.421Z,24.58
2022-08-27T07:41:23.757Z,24.70
2022-08-27T07:44:10.565Z,24.83
2022-08-27T07:46:40.073Z,24.89
2022-08-27T07:49:07.643Z,24.99
2022-08-27T07:51:37.437Z,25.09
2022-08-27T07:54:04.137Z,25.22
2022-08-27T07:56:31.025Z,25.34
2022-08-27T07:58:57.551Z,25.41
2022-08-27T08:01:24.344Z,25.40
2022-08-27T08:03:51.025Z,25.36
2022-08-27T08:06:17.585Z,25.31
2022-08-27T08:08:45.211Z,25.22
2022-08-27T08:11:13.104Z,25.15
2022-08-27T08:13:39.684Z,25.08
2022-08-27T08:16:06.655Z,24.98
2022-08-27T08:18:33.839Z,24.95
2022-08-27T08:21:01.762Z,25.05
2022-08-27T08:23:28.575Z,25.14
2022-08-27T08:25:55.360Z,25.22
2022-08-27T08:28:21.960Z,25.23
2022-08-27T08:30:48.661Z,25.30
2022-08-27T08:33:17.087Z,25.37
2022-08-27T08:35:43.639Z,25.42
2022-08-27T08:38:10.347Z,25.46
2022-08-27T08:40:39.709Z,25.52
2022-08-27T08:43:07.401Z,25.54
2022-08-27T08:45:36.659Z,25.68
2022-08-27T08:48:09.207Z,25.72
2022-08-27T08:50:45.192Z,25.79
2022-08-27T08:53:20.003Z,25.77
2022-08-27T08:55:47.386Z,25.71
2022-08-27T08:58:32.521Z,25.79
2022-08-27T09:01:01.091Z,25.81
2022-08-27T09:03:28.414Z,25.87
2022-08-27T09:06:00.041Z,25.94
2022-08-27T09:08:36.406Z,26.03
2022-08-27T09:11:04.346Z,26.11
2022-08-27T09:13:54.300Z,26.24
2022-08-27T09:16:21.449Z,26.48
2022-08-27T09:18:52.367Z,26.63
2022-08-27T09:21:31.101Z,26.69
2022-08-27T09:24:13.725Z,26.72
2022-08-27T09:26:42.829Z,26.77
2022-08-27T09:29:16.923Z,26.81
2022-08-27T09:31:44.974Z,26.85
2022-08-27T09:34:11.800Z,26.92
2022-08-27T09:36:53.296Z,27.01
2022-08-27T09:39:20.754Z,27.11
2022-08-27T09:41:48.452Z,27.18
2022-08-27T09:44:17.786Z,27.26
2022-08-27T09:46:58.617Z,27.35
2022-08-27T09:49:25.654Z,27.35
2022-08-27T09:51:52.913Z,27.24
2022-08-27T09:54:28.663Z,27.24
2022-08-27T09:56:55.347Z,27.38
2022-08-27T09:59:33.235Z,27.50
2022-08-27T10:02:02.785Z,27.53
2022-08-27T10:04:38.091Z,27.60
2022-08-27T10:07:36.005Z,27.72
2022-08-27T10:10:02.504Z,27.82
2022-08-27T10:12:45.484Z,27.85
2022-08-27T10:15:14.241Z,27.98
2022-08-27T10:17:59.603Z,28.13
2022-08-27T10:20:43.343Z,28.21
2022-08-27T10:23:25.086Z,28.34
2022-08-27T10:25:51.645Z,28.49
2022-08-27T10:28:23.411Z,28.68
2022-08-27T10:30:59.447Z,28.92
2022-08-27T10:33:33.251Z,29.23
2022-08-27T10:36:10.738Z,29.42
2022-08-27T10:38:43.882Z,29.52
2022-08-27T10:41:14.253Z,29.78
2022-08-27T10:43:46.713Z,30.18
2022-08-27T10:46:27.270Z,30.37
2022-08-27T10:48:53.834Z,30.58
2022-08-27T10:51:20.478Z,30.84
2022-08-27T10:53:51.248Z,30.96
2022-08-27T10:56:26.938Z,30.89
2022-08-27T10:59:05.534Z,30.89
2022-08-27T11:01:42.678Z,30.86
2022-08-27T11:04:13.428Z,30.74
2022-08-27T11:06:44.591Z,30.90
2022-08-27T11:09:19.191Z,30.94
2022-08-27T11:12:13.319Z,30.92
2022-08-27T11:14:50.240Z,30.86
2022-08-27T11:17:35.932Z,31.02
2022-08-27T11:20:14.097Z,31.21
2022-08-27T11:23:01.008Z,31.33
2022-08-27T11:25:33.609Z,31.30
2022-08-27T11:28:01.304Z,31.02
2022-08-27T11:30:36.203Z,30.79
2022-08-27T11:33:13.836Z,30.57
2022-08-27T11:35:50.460Z,30.34
2022-08-27T11:38:37.782Z,30.14
2022-08-27T11:41:16.292Z,29.98
2022-08-27T11:43:44.566Z,29.97
2022-08-27T11:46:11.839Z,29.97
2022-08-27T11:48:40.858Z,30.01
2022-08-27T11:51:12.473Z,29.92
2022-08-27T11:53:54.198Z,29.89
2022-08-27T11:56:36.853Z,29.82
2022-08-27T11:59:10.803Z,29.90
2022-08-27T12:01:38.677Z,29.85
2022-08-27T12:04:08.155Z,29.77
2022-08-27T12:06:43.590Z,29.82
2022-08-27T12:09:16.155Z,29.78
2022-08-27T12:11:56.594Z,29.75
2022-08-27T12:14:36.239Z,29.62
2022-08-27T12:17:22.314Z,29.55
2022-08-27T12:20:03.406Z,29.46
2022-08-27T12:23:03.269Z,29.43
2022-08-27T12:25:29.828Z,29.43
2022-08-27T12:27:57.912Z,29.47
2022-08-27T12:30:38.662Z,29.39
2022-08-27T12:33:25.165Z,29.21
2022-08-27T12:35:53.677Z,28.96
2022-08-27T12:38:20.540Z,28.79
2022-08-27T12:40:54.946Z,28.83
2022-08-27T12:43:23.073Z,28.95
2022-08-27T12:46:00.763Z,28.98
2022-08-27T12:48:29.629Z,28.94
2022-08-27T12:50:58.268Z,28.93
2022-08-27T12:53:30.449Z,28.89
2022-08-27T12:55:59.973Z,28.84
2022-08-27T12:58:52.832Z,28.92
2022-08-27T13:01:28.275Z,29.05
2022-08-27T13:03:55.950Z,29.11
2022-08-27T13:06:27.033Z,29.09
2022-08-27T13:08:55.581Z,28.95
2022-08-27T13:11:23.895Z,28.86
2022-08-27T13:13:51.575Z,28.76
2022-08-27T13:16:19.712Z,28.84
2022-08-27T13:18:48.055Z,28.87
2022-08-27T13:21:27.486Z,28.90
2022-08-27T13:23:58.486Z,28.96
2022-08-27T13:26:26.587Z,28.91
2022-08-27T13:28:53.375Z,28.82
2022-08-27T13:31:21.064Z,28.79
2022-08-27T13:33:48.139Z,28.77
2022-08-27T13:36:25.491Z,28.78
2022-08-27T13:38:52.366Z,28.86
2022-08-27T13:41:25.536Z,28.89
2022-08-27T13:43:55.846Z,28.91
2022-08-27T13:46:27.973Z,28.97
2022-08-27T13:48:56.250Z,28.86
2022-08-27T13:51:33.277Z,28.90
2022-08-27T13:54:13.567Z,28.92
2022-08-27T13:56:42.513Z,29.07
2022-08-27T13:59:16.203Z,29.11
2022-08-27T14:01:55.143Z,28.93
2022-08-27T14:04:24.204Z,28.92
2022-08-27T14:06:50.960Z,28.84
2022-08-27T14:09:26.393Z,28.85
2022-08-27T14:12:01.179Z,28.88
2022-08-27T14:14:27.783Z,28.98
2022-08-27T14:17:01.762Z,29.05
2022-08-27T14:19:36.283Z,29.13
2022-08-27T14:22:03.434Z,29.19
2022-08-27T14:24:30.000Z,29.22
2022-08-27T14:27:07.987Z,29.35
2022-08-27T14:29:34.670Z,29.67
2022-08-27T14:32:04.645Z,29.94
2022-08-27T14:34:31.286Z,30.09
2022-08-27T14:36:57.987Z,30.31
2022-08-27T14:39:26.614Z,30.52
2022-08-27T14:41:53.958Z,30.67
2022-08-27T14:44:21.254Z,30.76
2022-08-27T14:46:47.979Z,30.80
2022-08-27T14:49:16.883Z,30.88
2022-08-27T14:51:45.841Z,30.86
2022-08-27T14:54:12.869Z,30.75
2022-08-27T14:56:39.400Z,30.67
2022-08-27T14:59:05.986Z,30.47
2022-08-27T15:01:35.868Z,30.13
2022-08-27T15:04:02.930Z,29.89
2022-08-27T15:06:29.377Z,29.52
2022-08-27T15:08:56.187Z,29.22
2022-08-27T15:11:24.463Z,28.94
2022-08-27T15:13:51.330Z,28.83
2022-08-27T15:16:47.390Z,28.79
2022-08-27T15:19:15.370Z,28.77
2022-08-27T15:21:44.225Z,28.79
2022-08-27T15:24:24.822Z,28.77
2022-08-27T15:26:52.759Z,28.82
2022-08-27T15:29:19.592Z,28.84
2022-08-27T15:31:46.513Z,28.80
2022-08-27T15:34:13.052Z,28.87
2022-08-27T15:36:39.753Z,28.91
2022-08-27T15:39:06.341Z,28.86
2022-08-27T15:41:34.241Z,28.79
2022-08-27T15:44:05.643Z,28.61
2022-08-27T15:46:32.254Z,28.42
2022-08-27T15:48:59.335Z,28.31
2022-08-27T15:51:28.860Z,28.25
2022-08-27T15:53:55.734Z,28.17
2022-08-27T15:56:23.448Z,28.03
2022-08-27T15:58:50.408Z,27.85
2022-08-27T16:01:21.657Z,27.76
2022-08-27T16:03:50.008Z,27.67
2022-08-27T16:06:19.524Z,27.74
2022-08-27T16:08:46.964Z,27.83
2022-08-27T16:11:13.848Z,27.86
2022-08-27T16:13:41.081Z,27.93
2022-08-27T16:16:10.342Z,27.96
2022-08-27T16:18:37.616Z,27.97
2022-08-27T16:21:04.922Z,27.98
2022-08-27T16:23:32.452Z,27.92
2022-08-27T16:25:59.360Z,27.93
2022-08-27T16:28:26.423Z,27.86
2022-08-27T16:30:53.763Z,27.82
2022-08-27T16:33:20.556Z,27.80
2022-08-27T16:35:47.261Z,27.80
2022-08-27T16:38:13.902Z,27.77
2022-08-27T16:40:43.971Z,27.66
2022-08-27T16:43:30.775Z,27.57
2022-08-27T16:45:58.567Z,27.51
2022-08-27T16:48:44.700Z,27.47
2022-08-27T16:51:16.518Z,27.46
2022-08-27T16:53:43.492Z,27.37
2022-08-27T16:56:10.939Z,27.24
2022-08-27T16:58:40.470Z,27.14
2022-08-27T17:01:08.927Z,27.04
2022-08-27T17:04:04.705Z,26.97
2022-08-27T17:06:26.339Z,26.91
2022-08-27T17:08:54.452Z,26.82
2022-08-27T17:11:30.644Z,26.76
2022-08-27T17:13:58.880Z,26.63
2022-08-27T17:16:26.761Z,26.56
2022-08-27T17:18:53.453Z,26.48
2022-08-27T17:21:21.491Z,26.44
2022-08-27T17:23:49.636Z,26.41
2022-08-27T17:26:16.812Z,26.36
2022-08-27T17:28:43.696Z,26.30
2022-08-27T17:31:30.417Z,26.29
2022-08-27T17:33:59.386Z,26.26
2022-08-27T17:36:27.138Z,26.15
2022-08-27T17:38:54.306Z,26.10
2022-08-27T17:41:23.935Z,26.08
2022-08-27T17:43:50.883Z,26.04
2022-08-27T17:46:17.836Z,26.06
2022-08-27T17:48:44.951Z,26.00
2022-08-27T17:51:12.391Z,25.96
2022-08-27T17:53:44.190Z,25.93
2022-08-27T17:56:10.696Z,25.88
2022-08-27T17:58:37.324Z,25.84
2022-08-27T18:01:03.942Z,25.80
2022-08-27T18:03:31.622Z,25.71
2022-08-27T18:06:11.600Z,25.67
2022-08-27T18:08:38.385Z,25.66
2022-08-27T18:11:05.317Z,25.62
2022-08-27T18:13:32.813Z,25.59
2022-08-27T18:15:59.343Z,25.54
2022-08-27T18:18:25.952Z,25.50
2022-08-27T18:20:55.177Z,25.45
2022-08-27T18:23:23.173Z,25.41
2022-08-27T18:25:51.026Z,25.41
2022-08-27T18:28:18.653Z,25.38
2022-08-27T18:30:45.776Z,25.34
2022-08-27T18:33:12.824Z,25.28
2022-08-27T18:35:39.698Z,25.24
2022-08-27T18:38:06.605Z,25.19
2022-08-27T18:40:42.026Z,25.15
2022-08-27T18:43:08.692Z,25.16
2022-08-27T18:45:37.615Z,25.18
2022-08-27T18:48:09.716Z,25.20
2022-08-27T18:50:38.518Z,25.21
2022-08-27T18:53:05.050Z,25.14
2022-08-27T18:55:31.552Z,25.10
2022-08-27T18:57:58.099Z,24.95
2022-08-27T19:00:24.848Z,24.91
2022-08-27T19:02:52.802Z,24.85
2022-08-27T19:05:26.583Z,24.82
2022-08-27T19:07:53.517Z,24.84
2022-08-27T19:10:20.226Z,24.85
2022-08-27T19:12:47.817Z,24.82
2022-08-27T19:15:15.583Z,24.81
2022-08-27T19:17:43.935Z,24.76
2022-08-27T19:20:11.524Z,24.74
2022-08-27T19:22:38.213Z,24.72
2022-08-27T19:25:07.299Z,24.71
2022-08-27T19:27:34.216Z,24.66
2022-08-27T19:30:00.678Z,24.67
2022-08-27T19:32:27.304Z,24.65
2022-08-27T19:34:53.802Z,24.70
2022-08-27T19:37:22.147Z,24.73
2022-08-27T19:39:48.690Z,24.72
2022-08-27T19:42:15.449Z,24.69
2022-08-27T19:44:41.960Z,24.62
2022-08-27T19:47:09.968Z,24.56
2022-08-27T19:49:37.195Z,24.56
2022-08-27T19:52:08.383Z,24.47
2022-08-27T19:54:43.155Z,24.41
2022-08-27T19:57:18.860Z,24.34
2022-08-27T19:59:45.476Z,24.30
2022-08-27T20:02:12.531Z,24.31
2022-08-27T20:04:55.940Z,24.38
2022-08-27T20:07:22.804Z,24.45
2022-08-27T20:09:49.282Z,24.57
2022-08-27T20:12:16.011Z,24.67
2022-08-27T20:14:42.586Z,24.77
2022-08-27T20:17:09.469Z,24.83
2022-08-27T20:19:36.448Z,24.83
2022-08-27T20:22:03.056Z,24.80
2022-08-27T20:24:29.574Z,24.78
2022-08-27T20:26:56.881Z,24.71
2022-08-27T20:29:32.524Z,24.65
2022-08-27T20:31:59.623Z,24.66
2022-08-27T20:34:26.409Z,24.69
2022-08-27T20:36:56.040Z,24.64
2022-08-27T20:39:22.736Z,24.55
2022-08-27T20:41:49.204Z,24.47
2022-08-27T20:44:17.012Z,24.41
2022-08-27T20:46:43.696Z,24.34
2022-08-27T20:49:15.454Z,24.25
2022-08-27T20:51:51.334Z,24.21
2022-08-27T20:54:28.538Z,24.23
2022-08-27T20:56:55.113Z,24.23
2022-08-27T20:59:40.256Z,24.27
2022-08-27T21:02:08.106Z,24.25
2022-08-27T21:04:35.799Z,24.26
2022-08-27T21:07:02.443Z,24.28
2022-08-27T21:09:28.995Z,24.29
2022-08-27T21:11:56.053Z,24.29
2022-08-27T21:14:22.843Z,24.32
2022-08-27T21:16:50.242Z,24.34
2022-08-27T21:19:16.787Z,24.32
2022-08-27T21:21:43.359Z,24.31
2022-08-27T21:24:09.845Z,24.31
2022-08-27T21:26:36.366Z,24.29
2022-08-27T21:29:03.243Z,24.31
2022-08-27T21:31:30.158Z,24.30
2022-08-27T21:33:56.787Z,24.27
2022-08-27T21:36:23.510Z,24.28
2022-08-27T21:38:50.348Z,24.32
2022-08-27T21:41:16.903Z,24.39
2022-08-27T21:43:43.419Z,24.39
2022-08-27T21:46:09.925Z,24.37
2022-08-27T21:48:36.433Z,24.38
2022-08-27T21:51:10.469Z,24.30
2022-08-27T21:53:37.577Z,24.32
2022-08-27T21:56:04.157Z,24.30
2022-08-27T21:58:30.754Z,24.30
2022-08-27T22:00:57.434Z,24.29
2022-08-27T22:03:24.734Z,24.26
2022-08-27T22:05:51.335Z,24.25
2022-08-27T22:08:19.094Z,24.27
2022-08-27T22:10:46.746Z,24.29
2022-08-27T22:13:13.766Z,24.28
2022-08-27T22:15:40.377Z,24.21
2022-08-27T22:18:07.233Z,24.14
2022-08-27T22:20:34.162Z,24.13
2022-08-27T22:23:01.049Z,24.11
2022-08-27T22:25:27.907Z,24.13
2022-08-27T22:27:54.831Z,24.14
2022-08-27T22:30:21.561Z,24.13
2022-08-27T22:32:48.939Z,24.14
2022-08-27T22:35:16.720Z,24.11
2022-08-27T22:37:44.073Z,24.08
2022-08-27T22:40:19.157Z,23.97
2022-08-27T22:42:46.230Z,23.88
2022-08-27T22:45:12.831Z,23.86
2022-08-27T22:47:39.380Z,23.79
2022-08-27T22:50:06.836Z,23.77
2022-08-27T22:52:33.603Z,23.74
2022-08-27T22:55:00.183Z,23.76
2022-08-27T22:57:26.770Z,23.75
2022-08-27T22:59:53.302Z,23.77
2022-08-27T23:02:19.928Z,23.78
2022-08-27T23:04:55.120Z,23.78
2022-08-27T23:07:22.310Z,23.73
2022-08-27T23:09:48.822Z,23.66
2022-08-27T23:12:15.546Z,23.60
2022-08-27T23:14:42.133Z,23.53
2022-08-27T23:17:08.638Z,23.48
2022-08-27T23:19:35.127Z,23.50
2022-08-27T23:22:01.647Z,23.54
2022-08-27T23:24:33.164Z,23.55
2022-08-27T23:27:18.172Z,23.52
2022-08-27T23:29:45.604Z,23.49
2022-08-27T23:32:12.122Z,23.49
2022-08-27T23:34:38.576Z,23.53
2022-08-27T23:37:05.033Z,23.56
2022-08-27T23:39:31.624Z,23.60
2022-08-27T23:41:58.351Z,23.58
2022-08-27T23:44:28.430Z,23.62
2022-08-27T23:46:55.052Z,23.60
2022-08-27T23:49:21.604Z,23.58
2022-08-27T23:51:48.152Z,23.54
2022-08-27T23:54:14.882Z,23.52
2022-08-27T23:56:41.424Z,23.48
2022-08-27T23:59:08.051Z,23.46
